Time;durP1;ratioP1;P1;durP2;ratioP2;P2;SDS_P1;SDS_P2;PMS_P1;PMS_P2;Temp;Humidity;BMP_temperature;BMP_pressure;BME280_temperature;BME280_humidity;BME280_pressure;Samples;Min_cycle;Max_cycle;Signal;HPM_P1;HPM_P2
2023/01/21 00:00:46;;;;;;;5.38;4.93;;;;;;;;;;5036928;28;20205;-66
2023/01/21 00:03:15;;;;;;;5.50;5.00;;;;;;;;;;5018820;28;20300;-66
2023/01/21 00:05:42;;;;;;;5.28;4.80;;;;;;;;;;5017712;28;20567;-66
2023/01/21 00:08:12;;;;;;;5.68;5.18;;;;;;;;;;5023180;28;20532;-66
2023/01/21 00:10:39;;;;;;;5.30;4.90;;;;;;;;;;5029938;28;20226;-66
2023/01/21 00:13:07;;;;;;;5.88;5.38;;;;;;;;;;5018660;28;20199;-66
2023/01/21 00:15:36;;;;;;;6.18;5.68;;;;;;;;;;5018662;28;20224;-66
2023/01/21 00:18:04;;;;;;;5.90;5.40;;;;;;;;;;5023782;28;20310;-67
2023/01/21 00:20:31;;;;;;;5.65;5.15;;;;;;;;;;5018774;28;20202;-66
2023/01/21 00:22:59;;;;;;;5.30;4.90;;;;;;;;;;5024845;28;20312;-66
2023/01/21 00:25:28;;;;;;;6.00;5.50;;;;;;;;;;5030250;28;20198;-66
2023/01/21 00:27:56;;;;;;;5.90;5.40;;;;;;;;;;5020561;28;20217;-66
2023/01/21 00:30:23;;;;;;;5.97;5.47;;;;;;;;;;5031534;28;20282;-66
2023/01/21 00:32:51;;;;;;;6.03;5.53;;;;;;;;;;5016766;28;20265;-66
2023/01/21 00:35:18;;;;;;;6.15;5.65;;;;;;;;;;5031240;28;20613;-66
2023/01/21 00:37:46;;;;;;;5.60;5.10;;;;;;;;;;5035738;28;20356;-66
2023/01/21 00:40:14;;;;;;;6.32;5.72;;;;;;;;;;5021003;28;20198;-66
2023/01/21 00:42:43;;;;;;;6.68;6.15;;;;;;;;;;5033447;28;20202;-66
2023/01/21 00:45:11;;;;;;;5.78;5.28;;;;;;;;;;5017534;28;20206;-66
2023/01/21 00:47:39;;;;;;;6.03;5.50;;;;;;;;;;5017846;28;20195;-66
2023/01/21 00:50:07;;;;;;;6.13;5.60;;;;;;;;;;5021612;28;20228;-66
2023/01/21 00:52:35;;;;;;;6.15;5.65;;;;;;;;;;5037178;28;20202;-66
2023/01/21 00:55:03;;;;;;;6.45;5.88;;;;;;;;;;5036383;28;20268;-66
2023/01/21 00:57:30;;;;;;;6.45;5.85;;;;;;;;;;5061175;28;20231;-66
2023/01/21 01:00:00;;;;;;;6.45;5.90;;;;;;;;;;5075320;28;20307;-66
2023/01/21 01:02:27;;;;;;;6.03;5.53;;;;;;;;;;5075311;28;20200;-66
2023/01/21 01:04:55;;;;;;;5.95;5.45;;;;;;;;;;5076027;28;20212;-66
2023/01/21 01:07:23;;;;;;;6.35;5.75;;;;;;;;;;5076279;28;20250;-66
2023/01/21 01:09:50;;;;;;;6.55;5.95;;;;;;;;;;5077235;28;20207;-66
2023/01/21 01:12:18;;;;;;;5.95;5.45;;;;;;;;;;5077138;28;20201;-66
2023/01/21 01:14:46;;;;;;;6.40;5.80;;;;;;;;;;5075456;28;20216;-66
2023/01/21 01:17:15;;;;;;;6.22;5.72;;;;;;;;;;5074793;28;20200;-66
2023/01/21 01:19:43;;;;;;;6.25;5.72;;;;;;;;;;5076279;28;20216;-66
2023/01/21 01:22:11;;;;;;;6.47;5.88;;;;;;;;;;5077005;28;20201;-66
2023/01/21 01:24:38;;;;;;;6.78;6.18;;;;;;;;;;5076287;28;20216;-66
2023/01/21 01:27:06;;;;;;;6.43;5.88;;;;;;;;;;5075592;28;20200;-66
2023/01/21 01:29:34;;;;;;;6.63;6.00;;;;;;;;;;5075021;28;20196;-66
2023/01/21 01:32:02;;;;;;;6.22;5.70;;;;;;;;;;5076220;28;20212;-66
2023/01/21 01:34:31;;;;;;;6.60;6.00;;;;;;;;;;5075801;28;20204;-66
2023/01/21 01:36:59;;;;;;;5.80;5.30;;;;;;;;;;5075355;28;20531;-66
2023/01/21 01:39:26;;;;;;;6.40;5.90;;;;;;;;;;5075391;28;20224;-66
2023/01/21 01:41:54;;;;;;;6.22;5.72;;;;;;;;;;5076562;28;20205;-66
2023/01/21 01:44:40;;;;;;;6.57;6.00;;;;;;;;;;5076722;28;20533;-66
2023/01/21 01:47:08;;;;;;;6.80;6.20;;;;;;;;;;5076553;28;20196;-66
2023/01/21 01:49:38;;;;;;;6.57;5.97;;;;;;;;;;5076938;28;20251;-66
2023/01/21 01:52:07;;;;;;;7.07;6.45;;;;;;;;;;5076414;28;20611;-66
2023/01/21 01:54:37;;;;;;;6.50;6.00;;;;;;;;;;5076111;28;20207;-66
2023/01/21 01:57:06;;;;;;;6.78;6.18;;;;;;;;;;5076025;28;20317;-66
2023/01/21 01:59:34;;;;;;;6.60;6.00;;;;;;;;;;5075741;28;20220;-66
2023/01/21 02:02:04;;;;;;;7.00;6.32;;;;;;;;;;5074949;28;20271;-66
2023/01/21 02:04:35;;;;;;;6.13;5.53;;;;;;;;;;5075821;28;20208;-66
2023/01/21 02:07:04;;;;;;;6.55;5.95;;;;;;;;;;5075913;28;20526;-66
2023/01/21 02:09:32;;;;;;;7.00;6.40;;;;;;;;;;5075352;28;20197;-66
2023/01/21 02:12:00;;;;;;;6.82;6.22;;;;;;;;;;5075598;28;20208;-66
2023/01/21 02:14:29;;;;;;;6.93;6.25;;;;;;;;;;5076008;28;20207;-66
2023/01/21 02:17:04;;;;;;;7.05;6.45;;;;;;;;;;5076590;28;20234;-66
2023/01/21 02:19:50;;;;;;;6.93;6.30;;;;;;;;;;5076374;28;20249;-67
2023/01/21 02:22:24;;;;;;;6.78;6.18;;;;;;;;;;5076535;28;20585;-66
2023/01/21 02:25:10;;;;;;;6.90;6.30;;;;;;;;;;5075896;28;20200;-66
2023/01/21 02:27:43;;;;;;;7.25;6.57;;;;;;;;;;5061265;28;20200;-66
2023/01/21 02:30:31;;;;;;;7.95;7.15;;;;;;;;;;5075522;28;20227;-66
2023/01/21 02:33:13;;;;;;;7.03;6.32;;;;;;;;;;5070692;28;20200;-66
2023/01/21 02:35:44;;;;;;;7.22;6.63;;;;;;;;;;5073335;28;20235;-66
2023/01/21 02:38:16;;;;;;;7.28;6.57;;;;;;;;;;5075357;28;20224;-66
2023/01/21 02:40:48;;;;;;;7.35;6.65;;;;;;;;;;5075603;28;20196;-66
2023/01/21 02:43:19;;;;;;;7.47;6.78;;;;;;;;;;5075488;28;20330;-66
2023/01/21 02:45:50;;;;;;;7.05;6.45;;;;;;;;;;5076159;28;20262;-66
2023/01/21 02:48:21;;;;;;;7.20;6.50;;;;;;;;;;5075621;28;20243;-66
2023/01/21 02:50:51;;;;;;;6.57;5.97;;;;;;;;;;5076080;28;20251;-66
2023/01/21 02:53:23;;;;;;;7.25;6.55;;;;;;;;;;5075672;28;20677;-66
2023/01/21 02:55:51;;;;;;;7.05;6.38;;;;;;;;;;5076186;28;20243;-66
2023/01/21 02:58:20;;;;;;;7.20;6.53;;;;;;;;;;5074867;28;20260;-66
2023/01/21 03:00:55;;;;;;;7.57;6.88;;;;;;;;;;5075327;28;20261;-66
2023/01/21 03:03:29;;;;;;;7.68;6.95;;;;;;;;;;5074795;28;20266;-66
2023/01/21 03:06:10;;;;;;;7.82;7.13;;;;;;;;;;5078217;28;20247;-66
2023/01/21 03:08:41;;;;;;;7.55;6.68;;;;;;;;;;5078195;28;20204;-66
2023/01/21 03:11:14;;;;;;;7.65;6.95;;;;;;;;;;5078646;28;20299;-66
2023/01/21 03:19:19;;;;;;;7.65;6.95;;;;;;;;;;5077979;28;20285;-66
2023/01/21 03:21:49;;;;;;;7.63;6.90;;;;;;;;;;5078141;28;20208;-66
2023/01/21 03:24:17;;;;;;;6.80;6.20;;;;;;;;;;5078516;28;20197;-66
2023/01/21 03:26:48;;;;;;;6.85;6.25;;;;;;;;;;5078496;28;20312;-66
2023/01/21 03:29:18;;;;;;;7.25;6.55;;;;;;;;;;5078535;28;20204;-66
2023/01/21 03:31:48;;;;;;;6.95;6.25;;;;;;;;;;5078487;28;20223;-66
2023/01/21 03:34:17;;;;;;;7.20;6.50;;;;;;;;;;5078605;28;20303;-66
2023/01/21 03:36:48;;;;;;;7.20;6.50;;;;;;;;;;5078535;28;20208;-66
2023/01/21 03:39:19;;;;;;;7.03;6.35;;;;;;;;;;5078998;28;20224;-66
2023/01/21 03:41:47;;;;;;;7.53;6.72;;;;;;;;;;5079204;28;20218;-66
2023/01/21 03:44:15;;;;;;;7.68;6.85;;;;;;;;;;5078900;28;20261;-66
2023/01/21 03:46:48;;;;;;;7.38;6.68;;;;;;;;;;5079086;28;20208;-66
2023/01/21 03:49:18;;;;;;;6.80;6.18;;;;;;;;;;5078763;28;20200;-65
2023/01/21 03:51:48;;;;;;;7.35;6.65;;;;;;;;;;5078490;28;20576;-66
2023/01/21 03:54:18;;;;;;;7.85;7.05;;;;;;;;;;5079021;28;20239;-66
2023/01/21 03:56:46;;;;;;;7.32;6.38;;;;;;;;;;5072047;28;20263;-66
2023/01/21 03:59:13;;;;;;;7.57;6.82;;;;;;;;;;5043669;28;20229;-66
2023/01/21 04:01:41;;;;;;;7.82;7.03;;;;;;;;;;5037056;28;20217;-66
2023/01/21 04:04:10;;;;;;;8.18;7.00;;;;;;;;;;5034517;28;20198;-66
2023/01/21 04:06:37;;;;;;;7.38;6.68;;;;;;;;;;5024010;28;20205;-66
2023/01/21 04:09:05;;;;;;;6.85;6.07;;;;;;;;;;5019221;28;20474;-66
2023/01/21 04:11:35;;;;;;;6.82;6.22;;;;;;;;;;5032830;28;20216;-66
2023/01/21 04:14:02;;;;;;;7.85;7.05;;;;;;;;;;5019367;28;20214;-66
2023/01/21 04:16:31;;;;;;;7.30;6.60;;;;;;;;;;5018694;28;20276;-66
2023/01/21 04:18:59;;;;;;;7.25;6.55;;;;;;;;;;5037589;28;20272;-66
2023/01/21 04:21:27;;;;;;;7.40;6.70;;;;;;;;;;5038064;28;20649;-66
2023/01/21 04:23:55;;;;;;;7.82;7.07;;;;;;;;;;5037692;28;20201;-66
2023/01/21 04:26:22;;;;;;;7.43;6.57;;;;;;;;;;5018582;28;20238;-66
2023/01/21 04:28:52;;;;;;;7.13;6.43;;;;;;;;;;5036226;28;20205;-66
2023/01/21 04:31:20;;;;;;;7.13;6.43;;;;;;;;;;5028218;28;20256;-66
2023/01/21 04:33:47;;;;;;;7.05;6.35;;;;;;;;;;5017660;28;20214;-66
2023/01/21 04:36:15;;;;;;;7.28;6.47;;;;;;;;;;5017442;28;20234;-66
2023/01/21 04:38:43;;;;;;;7.22;6.45;;;;;;;;;;5019195;28;20213;-66
2023/01/21 04:41:10;;;;;;;7.50;6.65;;;;;;;;;;5037493;28;20202;-65
2023/01/21 04:43:38;;;;;;;7.55;6.75;;;;;;;;;;5023754;28;20198;-66
2023/01/21 04:46:08;;;;;;;7.50;6.80;;;;;;;;;;5028803;28;20198;-66
2023/01/21 04:48:35;;;;;;;7.20;6.50;;;;;;;;;;5027235;28;20208;-66
2023/01/21 04:51:05;;;;;;;7.53;6.72;;;;;;;;;;5037561;28;20209;-66
2023/01/21 04:53:32;;;;;;;6.90;6.18;;;;;;;;;;5026718;28;20257;-66
2023/01/21 04:56:00;;;;;;;6.82;6.15;;;;;;;;;;5018253;28;20534;-66
2023/01/21 04:58:28;;;;;;;7.25;6.53;;;;;;;;;;5052629;28;20224;-66
2023/01/21 05:00:56;;;;;;;7.20;6.50;;;;;;;;;;5056932;28;20233;-66
2023/01/21 05:03:24;;;;;;;7.28;6.57;;;;;;;;;;5056471;28;20288;-66
2023/01/21 05:05:52;;;;;;;7.55;6.75;;;;;;;;;;5056547;28;20209;-66
2023/01/21 05:08:19;;;;;;;6.85;6.25;;;;;;;;;;5056291;28;20197;-66
2023/01/21 05:10:47;;;;;;;7.60;6.70;;;;;;;;;;5057175;28;20290;-66
2023/01/21 05:13:14;;;;;;;7.90;7.10;;;;;;;;;;5057123;28;20280;-66
2023/01/21 05:15:41;;;;;;;7.43;6.70;;;;;;;;;;5056960;28;20215;-66
2023/01/21 05:18:09;;;;;;;7.07;6.38;;;;;;;;;;5056581;28;20519;-65
2023/01/21 05:20:37;;;;;;;7.28;6.55;;;;;;;;;;5056572;28;20221;-66
2023/01/21 05:23:05;;;;;;;7.93;6.57;;;;;;;;;;5057187;28;20202;-66
2023/01/21 05:25:32;;;;;;;7.28;6.57;;;;;;;;;;5056601;28;20232;-66
2023/01/21 05:28:00;;;;;;;6.88;6.18;;;;;;;;;;5055738;28;20202;-66
2023/01/21 05:30:27;;;;;;;7.07;6.38;;;;;;;;;;5056202;28;20196;-66
2023/01/21 05:32:55;;;;;;;7.88;7.10;;;;;;;;;;5055764;28;20248;-66
2023/01/21 05:35:23;;;;;;;6.80;6.10;;;;;;;;;;5056307;28;20223;-66
2023/01/21 05:37:51;;;;;;;7.10;6.40;;;;;;;;;;5055789;28;20287;-66
2023/01/21 05:40:19;;;;;;;6.90;6.20;;;;;;;;;;5056707;28;20235;-66
2023/01/21 05:42:47;;;;;;;6.93;6.22;;;;;;;;;;5056429;28;20296;-66
2023/01/21 05:45:15;;;;;;;6.85;6.15;;;;;;;;;;5056405;28;20201;-66
2023/01/21 05:47:42;;;;;;;6.93;6.22;;;;;;;;;;5056145;28;20284;-66
2023/01/21 05:50:10;;;;;;;7.03;6.32;;;;;;;;;;5056607;28;20648;-66
2023/01/21 05:52:38;;;;;;;7.07;6.38;;;;;;;;;;5056733;28;20575;-66
2023/01/21 05:55:07;;;;;;;7.22;6.47;;;;;;;;;;5056876;28;20220;-66
2023/01/21 05:57:34;;;;;;;7.07;6.38;;;;;;;;;;5068052;28;20512;-66
2023/01/21 06:00:02;;;;;;;7.53;6.72;;;;;;;;;;5076089;28;20250;-66
2023/01/21 06:02:29;;;;;;;7.22;6.53;;;;;;;;;;5075830;28;20201;-66
2023/01/21 06:04:57;;;;;;;7.75;6.70;;;;;;;;;;5076853;28;20530;-66
2023/01/21 06:07:24;;;;;;;6.57;5.95;;;;;;;;;;5076115;28;20196;-66
2023/01/21 06:09:51;;;;;;;6.78;6.07;;;;;;;;;;5076732;28;20227;-66
2023/01/21 06:12:20;;;;;;;6.70;6.05;;;;;;;;;;5075997;28;20204;-66
2023/01/21 06:14:48;;;;;;;7.20;6.50;;;;;;;;;;5076193;28;20200;-66
2023/01/21 06:17:15;;;;;;;7.07;6.35;;;;;;;;;;5076464;28;20201;-66
2023/01/21 06:19:42;;;;;;;7.22;6.50;;;;;;;;;;5076532;28;20224;-66
2023/01/21 06:22:12;;;;;;;7.00;6.30;;;;;;;;;;5076804;28;20667;-66
2023/01/21 06:24:39;;;;;;;6.95;6.25;;;;;;;;;;5075884;28;20580;-66
2023/01/21 06:27:07;;;;;;;7.10;6.40;;;;;;;;;;5075305;28;20257;-66
2023/01/21 06:29:35;;;;;;;6.80;5.85;;;;;;;;;;5075059;28;20288;-66
2023/01/21 06:32:03;;;;;;;6.47;5.82;;;;;;;;;;5075139;28;20196;-66
2023/01/21 06:34:30;;;;;;;7.07;6.38;;;;;;;;;;5064610;28;20292;-66
2023/01/21 06:36:58;;;;;;;6.93;6.22;;;;;;;;;;5075473;28;20211;-66
2023/01/21 06:39:25;;;;;;;6.68;5.97;;;;;;;;;;5077188;28;20236;-66
2023/01/21 06:41:52;;;;;;;6.70;6.03;;;;;;;;;;5080190;28;20295;-66
2023/01/21 06:44:20;;;;;;;6.32;5.55;;;;;;;;;;5079880;28;20295;-66
2023/01/21 06:46:49;;;;;;;6.57;5.97;;;;;;;;;;5079642;28;20581;-66
2023/01/21 06:49:16;;;;;;;6.88;5.97;;;;;;;;;;5072119;28;20207;-66
2023/01/21 06:51:43;;;;;;;6.47;5.57;;;;;;;;;;5080202;28;20543;-66
2023/01/21 06:54:11;;;;;;;6.97;6.28;;;;;;;;;;5078999;28;20211;-66
2023/01/21 06:56:39;;;;;;;6.80;6.10;;;;;;;;;;5078994;28;20331;-66
2023/01/21 06:59:07;;;;;;;6.28;5.68;;;;;;;;;;5078207;28;20299;-66
2023/01/21 07:01:34;;;;;;;6.32;5.72;;;;;;;;;;5078558;28;20228;-65
2023/01/21 07:04:03;;;;;;;6.32;5.72;;;;;;;;;;5078344;28;20208;-66
2023/01/21 07:06:30;;;;;;;6.10;5.50;;;;;;;;;;5078879;28;20659;-66
2023/01/21 07:08:58;;;;;;;6.68;5.97;;;;;;;;;;5078756;28;20197;-66
2023/01/21 07:11:25;;;;;;;6.38;5.75;;;;;;;;;;5079504;28;20289;-66
2023/01/21 07:13:53;;;;;;;6.15;5.55;;;;;;;;;;5078815;28;20239;-66
2023/01/21 07:16:20;;;;;;;6.53;5.90;;;;;;;;;;5078305;28;20546;-66
2023/01/21 07:18:48;;;;;;;6.53;5.70;;;;;;;;;;5078417;28;20283;-65
2023/01/21 07:21:17;;;;;;;6.05;5.43;;;;;;;;;;5078499;28;20303;-66
2023/01/21 07:23:45;;;;;;;5.93;5.32;;;;;;;;;;5078676;28;20207;-66
2023/01/21 07:26:13;;;;;;;6.60;5.90;;;;;;;;;;5077598;28;20207;-66
2023/01/21 07:28:40;;;;;;;6.60;5.93;;;;;;;;;;5077103;28;20200;-66
2023/01/21 07:31:08;;;;;;;6.10;5.50;;;;;;;;;;5077862;28;20665;-66
2023/01/21 07:33:35;;;;;;;6.22;5.63;;;;;;;;;;5077807;28;20611;-66
2023/01/21 07:36:03;;;;;;;6.25;5.65;;;;;;;;;;5078030;28;20646;-66
2023/01/21 07:38:31;;;;;;;5.90;5.30;;;;;;;;;;5078643;28;20232;-66
2023/01/21 07:40:59;;;;;;;6.07;5.47;;;;;;;;;;5077818;28;20209;-66
2023/01/21 07:43:27;;;;;;;6.05;5.45;;;;;;;;;;5077960;28;20291;-66
2023/01/21 07:45:55;;;;;;;5.40;4.90;;;;;;;;;;5076891;28;20197;-66
2023/01/21 07:48:22;;;;;;;5.93;5.32;;;;;;;;;;5076174;28;20212;-66
2023/01/21 07:50:49;;;;;;;5.70;5.20;;;;;;;;;;5076450;28;20196;-66
2023/01/21 07:53:17;;;;;;;5.85;5.25;;;;;;;;;;5077314;28;20236;-66
2023/01/21 07:55:46;;;;;;;5.80;5.18;;;;;;;;;;5077752;28;20290;-66
2023/01/21 07:58:13;;;;;;;5.93;5.32;;;;;;;;;;5076887;28;20335;-66
2023/01/21 08:00:40;;;;;;;5.43;4.93;;;;;;;;;;5076507;28;20224;-66
2023/01/21 08:03:08;;;;;;;5.75;5.20;;;;;;;;;;5076494;28;20687;-65
2023/01/21 08:05:35;;;;;;;6.13;5.53;;;;;;;;;;5075981;28;20204;-66
2023/01/21 08:08:03;;;;;;;5.80;5.03;;;;;;;;;;5076200;28;20273;-66
2023/01/21 08:10:30;;;;;;;4.88;4.45;;;;;;;;;;5077455;28;20291;-66
2023/01/21 08:13:00;;;;;;;5.78;5.18;;;;;;;;;;5077322;28;20200;-66
2023/01/21 08:15:28;;;;;;;5.78;5.28;;;;;;;;;;5077192;28;20207;-66
2023/01/21 08:17:55;;;;;;;5.10;4.65;;;;;;;;;;5076478;28;20192;-66
2023/01/21 08:20:23;;;;;;;5.28;4.65;;;;;;;;;;5062456;28;20628;-66
2023/01/21 08:22:50;;;;;;;5.28;4.78;;;;;;;;;;5077331;28;20204;-66
2023/01/21 08:25:18;;;;;;;4.85;4.40;;;;;;;;;;5077848;28;20210;-66
2023/01/21 08:27:45;;;;;;;5.00;4.50;;;;;;;;;;5075533;28;20247;-66
2023/01/21 08:30:15;;;;;;;5.22;4.50;;;;;;;;;;5075060;28;20236;-66
2023/01/21 08:32:42;;;;;;;5.03;4.57;;;;;;;;;;5076659;28;20192;-65
2023/01/21 08:35:10;;;;;;;4.90;4.40;;;;;;;;;;5075567;28;20206;-66
2023/01/21 08:37:38;;;;;;;5.30;4.78;;;;;;;;;;5076311;28;20640;-66
2023/01/21 08:40:06;;;;;;;4.63;4.13;;;;;;;;;;5076814;28;20621;-66
2023/01/21 08:42:33;;;;;;;4.90;4.50;;;;;;;;;;5076347;28;20207;-66
2023/01/21 08:45:01;;;;;;;4.85;4.35;;;;;;;;;;5077013;28;20224;-66
2023/01/21 08:47:30;;;;;;;4.32;3.92;;;;;;;;;;5076079;28;20629;-66
2023/01/21 08:49:57;;;;;;;4.90;4.40;;;;;;;;;;5076124;28;20755;-66
2023/01/21 08:52:24;;;;;;;4.38;3.97;;;;;;;;;;5076600;28;20298;-66
2023/01/21 08:54:52;;;;;;;4.38;3.97;;;;;;;;;;5076406;28;20234;-66
2023/01/21 08:57:19;;;;;;;4.50;4.10;;;;;;;;;;5075788;28;20216;-66
2023/01/21 08:59:47;;;;;;;4.88;4.38;;;;;;;;;;5076094;28;20727;-66
2023/01/21 09:02:14;;;;;;;5.22;3.95;;;;;;;;;;5075380;28;20307;-66
2023/01/21 09:04:43;;;;;;;4.25;3.85;;;;;;;;;;5075877;28;20274;-66
2023/01/21 09:07:10;;;;;;;4.68;4.20;;;;;;;;;;5076346;28;20292;-66
2023/01/21 09:09:38;;;;;;;4.32;3.92;;;;;;;;;;5056443;28;20228;-66
2023/01/21 09:12:05;;;;;;;4.05;3.75;;;;;;;;;;5059716;28;20195;-66
2023/01/21 09:14:33;;;;;;;4.32;3.92;;;;;;;;;;5074959;28;20211;-67
2023/01/21 09:17:00;;;;;;;4.07;3.67;;;;;;;;;;5075533;28;20200;-66
2023/01/21 09:19:28;;;;;;;4.38;3.97;;;;;;;;;;5074703;28;20291;-66
2023/01/21 09:21:57;;;;;;;4.30;3.90;;;;;;;;;;5075210;28;20221;-66
2023/01/21 09:24:24;;;;;;;4.10;3.70;;;;;;;;;;5075691;28;20205;-66
2023/01/21 09:26:52;;;;;;;4.07;3.67;;;;;;;;;;5074840;28;20287;-66
2023/01/21 09:29:19;;;;;;;3.90;3.50;;;;;;;;;;5075366;28;20212;-66
2023/01/21 09:31:47;;;;;;;4.07;3.67;;;;;;;;;;5075292;28;20350;-66
2023/01/21 09:34:14;;;;;;;4.70;3.78;;;;;;;;;;5075983;28;20299;-66
2023/01/21 09:36:41;;;;;;;4.07;3.67;;;;;;;;;;5075407;28;20208;-66
2023/01/21 09:39:10;;;;;;;3.90;3.53;;;;;;;;;;5075666;28;20671;-66
2023/01/21 09:41:39;;;;;;;4.25;3.83;;;;;;;;;;5074980;28;20255;-66
2023/01/21 09:44:11;;;;;;;3.88;3.40;;;;;;;;;;5076160;28;20211;-66
2023/01/21 09:46:41;;;;;;;3.80;3.50;;;;;;;;;;5075130;28;20343;-66
2023/01/21 09:49:14;;;;;;;3.92;3.63;;;;;;;;;;5074543;28;20214;-66
2023/01/21 09:51:48;;;;;;;3.50;3.20;;;;;;;;;;5075335;28;20232;-66
2023/01/21 09:54:19;;;;;;;3.50;3.20;;;;;;;;;;5075518;28;20302;-66
2023/01/21 09:56:53;;;;;;;3.80;3.40;;;;;;;;;;5074846;28;20224;-66
2023/01/21 09:59:38;;;;;;;3.58;3.28;;;;;;;;;;5074156;28;20298;-66
2023/01/21 10:02:10;;;;;;;3.55;3.22;;;;;;;;;;5074395;28;20227;-66
2023/01/21 10:04:43;;;;;;;3.50;3.20;;;;;;;;;;5075047;28;20670;-66
2023/01/21 10:07:13;;;;;;;3.83;3.53;;;;;;;;;;5075299;28;20291;-66
2023/01/21 10:09:51;;;;;;;3.50;3.20;;;;;;;;;;5074814;28;20596;-65
2023/01/21 10:12:36;;;;;;;4.18;3.45;;;;;;;;;;5075032;28;20315;-66
2023/01/21 10:15:19;;;;;;;4.50;3.80;;;;;;;;;;5078594;28;20192;-66
2023/01/21 10:17:52;;;;;;;3.55;3.25;;;;;;;;;;5078865;28;20230;-66
2023/01/21 10:20:22;;;;;;;4.10;3.70;;;;;;;;;;5079163;28;20291;-66
2023/01/21 10:22:52;;;;;;;3.65;3.35;;;;;;;;;;5078541;28;20202;-66
2023/01/21 10:25:25;;;;;;;4.40;4.00;;;;;;;;;;5078266;28;20291;-66
2023/01/21 10:27:52;;;;;;;3.92;3.60;;;;;;;;;;5078287;28;20202;-66
2023/01/21 10:30:22;;;;;;;3.97;3.58;;;;;;;;;;5078400;28;20215;-66
2023/01/21 10:32:51;;;;;;;4.25;3.85;;;;;;;;;;5078553;28;20287;-66
2023/01/21 10:35:19;;;;;;;4.45;3.65;;;;;;;;;;5078754;28;20244;-66
2023/01/21 10:37:48;;;;;;;4.03;3.63;;;;;;;;;;5078280;28;20498;-66
2023/01/21 10:40:41;;;;;;;4.20;3.80;;;;;;;;;;5078965;28;20209;-66
2023/01/21 10:43:10;;;;;;;4.95;4.45;;;;;;;;;;5078274;28;20196;-66
2023/01/21 10:45:42;;;;;;;4.57;3.80;;;;;;;;;;5077851;28;20211;-66
2023/01/21 10:48:14;;;;;;;4.70;4.28;;;;;;;;;;5077492;28;20200;-65
2023/01/21 10:50:45;;;;;;;5.13;4.63;;;;;;;;;;5077344;28;20592;-66
2023/01/21 10:53:16;;;;;;;4.20;3.78;;;;;;;;;;5078378;28;20283;-66
2023/01/21 10:55:51;;;;;;;4.78;4.00;;;;;;;;;;5077134;28;20208;-66
2023/01/21 10:58:24;;;;;;;5.43;4.40;;;;;;;;;;5077781;28;20649;-66
2023/01/21 11:00:52;;;;;;;4.72;4.25;;;;;;;;;;5077130;28;20212;-66
2023/01/21 11:03:24;;;;;;;5.22;4.40;;;;;;;;;;5077977;28;20200;-66
2023/01/21 11:05:52;;;;;;;5.63;5.10;;;;;;;;;;5078011;28;20314;-66
2023/01/21 11:08:21;;;;;;;6.10;5.45;;;;;;;;;;5077517;28;20289;-66
2023/01/21 11:10:50;;;;;;;5.60;5.10;;;;;;;;;;5077765;28;20259;-66
2023/01/21 11:13:17;;;;;;;6.13;5.53;;;;;;;;;;5077093;28;20192;-66
2023/01/21 11:15:47;;;;;;;6.60;6.00;;;;;;;;;;5077470;28;20607;-66
2023/01/21 11:18:29;;;;;;;7.38;5.70;;;;;;;;;;5076963;28;20291;-66
2023/01/21 11:20:58;;;;;;;6.38;5.78;;;;;;;;;;5073601;28;20691;-66
2023/01/21 11:23:27;;;;;;;6.22;5.63;;;;;;;;;;5076647;28;20212;-66
2023/01/21 11:26:01;;;;;;;5.90;5.32;;;;;;;;;;5075902;28;20212;-66
2023/01/21 11:28:30;;;;;;;7.20;5.38;;;;;;;;;;5077329;28;20270;-66
2023/01/21 11:31:11;;;;;;;6.13;5.53;;;;;;;;;;5077480;28;20640;-66
2023/01/21 11:33:40;;;;;;;5.88;5.25;;;;;;;;;;5076788;28;20299;-66
2023/01/21 11:36:12;;;;;;;7.97;7.20;;;;;;;;;;5077692;28;20306;-65
2023/01/21 11:38:39;;;;;;;7.47;6.30;;;;;;;;;;5077400;28;20299;-66
2023/01/21 11:41:15;;;;;;;6.80;6.10;;;;;;;;;;5076940;28;20223;-66
2023/01/21 11:43:43;;;;;;;7.22;6.03;;;;;;;;;;5076366;28;20251;-66
2023/01/21 11:46:34;;;;;;;8.45;6.32;;;;;;;;;;5077846;28;20204;-66
2023/01/21 11:49:19;;;;;;;6.75;6.10;;;;;;;;;;5076910;28;20283;-66
2023/01/21 11:51:47;;;;;;;8.13;6.03;;;;;;;;;;5076361;28;20193;-66
2023/01/21 11:54:15;;;;;;;9.88;5.97;;;;;;;;;;5076861;28;20265;-66
2023/01/21 11:56:43;;;;;;;8.07;5.78;;;;;;;;;;5076501;28;20242;-66
2023/01/21 11:59:19;;;;;;;7.95;5.85;;;;;;;;;;5075058;28;20204;-66
2023/01/21 12:01:53;;;;;;;6.75;5.45;;;;;;;;;;5076833;28;20707;-66
2023/01/21 12:04:21;;;;;;;6.65;5.30;;;;;;;;;;5076760;28;20314;-66
2023/01/21 12:06:56;;;;;;;8.77;5.57;;;;;;;;;;5075762;28;20204;-65
2023/01/21 12:09:24;;;;;;;8.45;5.13;;;;;;;;;;5076238;28;20299;-66
2023/01/21 12:12:08;;;;;;;7.63;5.07;;;;;;;;;;5075885;28;20571;-66
2023/01/21 12:14:41;;;;;;;6.55;4.55;;;;;;;;;;5076219;28;20309;-66
2023/01/21 12:17:14;;;;;;;6.22;4.90;;;;;;;;;;5076039;28;20204;-66
2023/01/21 12:19:54;;;;;;;5.38;4.88;;;;;;;;;;5075829;28;20481;-66
2023/01/21 12:22:35;;;;;;;4.97;4.47;;;;;;;;;;5076542;28;20343;-66
2023/01/21 12:25:17;;;;;;;5.50;4.35;;;;;;;;;;5076231;28;20210;-66
2023/01/21 12:27:51;;;;;;;4.50;4.10;;;;;;;;;;5074549;28;20237;-66
2023/01/21 12:30:22;;;;;;;5.55;3.97;;;;;;;;;;5076063;28;20319;-66
2023/01/21 12:32:55;;;;;;;5.40;4.25;;;;;;;;;;5075453;28;20302;-66
2023/01/21 12:35:24;;;;;;;6.82;4.28;;;;;;;;;;5075757;28;20196;-66
2023/01/21 12:37:55;;;;;;;4.53;3.78;;;;;;;;;;5074671;28;20199;-66
2023/01/21 12:40:25;;;;;;;5.43;4.00;;;;;;;;;;5075635;28;20196;-66
2023/01/21 12:42:54;;;;;;;4.30;3.90;;;;;;;;;;5075477;28;20224;-66
2023/01/21 12:45:23;;;;;;;4.03;3.58;;;;;;;;;;5075228;28;20207;-65
2023/01/21 12:47:54;;;;;;;3.95;3.60;;;;;;;;;;5076139;28;20637;-66
2023/01/21 12:50:27;;;;;;;3.53;3.22;;;;;;;;;;5075502;28;20299;-66
2023/01/21 12:53:04;;;;;;;7.90;7.00;;;;;;;;;;5075196;28;20191;-66
2023/01/21 12:55:37;;;;;;;6.70;6.00;;;;;;;;;;5075809;28;20200;-66
2023/01/21 12:58:06;;;;;;;5.57;5.13;;;;;;;;;;5074748;28;20323;-66
2023/01/21 13:00:36;;;;;;;7.55;5.05;;;;;;;;;;5075116;28;20716;-66
2023/01/21 13:03:13;;;;;;;5.40;5.00;;;;;;;;;;5074959;28;20227;-66
2023/01/21 13:05:44;;;;;;;5.47;4.60;;;;;;;;;;5075012;28;20210;-66
2023/01/21 13:08:25;;;;;;;4.85;4.45;;;;;;;;;;5075304;28;20205;-66
2023/01/21 13:10:55;;;;;;;5.25;4.38;;;;;;;;;;5075486;28;20614;-66
2023/01/21 13:13:27;;;;;;;5.03;4.53;;;;;;;;;;5074643;28;20192;-66
2023/01/21 13:15:57;;;;;;;4.20;3.90;;;;;;;;;;5074651;28;20200;-66
2023/01/21 13:18:29;;;;;;;8.65;7.40;;;;;;;;;;5074382;28;20295;-66
2023/01/21 13:21:01;;;;;;;6.50;5.82;;;;;;;;;;5071476;28;20200;-66
2023/01/21 13:23:32;;;;;;;5.95;5.45;;;;;;;;;;5074624;28;20234;-66
2023/01/21 13:26:03;;;;;;;6.25;5.65;;;;;;;;;;5074473;28;20676;-66
2023/01/21 13:28:33;;;;;;;5.35;4.95;;;;;;;;;;5075498;28;20311;-66
2023/01/21 13:31:03;;;;;;;5.28;4.82;;;;;;;;;;5074813;28;20673;-66
2023/01/21 13:33:36;;;;;;;5.40;4.90;;;;;;;;;;5075163;28;20279;-66
2023/01/21 13:36:12;;;;;;;5.30;4.80;;;;;;;;;;5074574;28;20201;-66
2023/01/21 13:38:43;;;;;;;5.18;4.68;;;;;;;;;;5074886;28;20242;-66
2023/01/21 13:41:22;;;;;;;4.70;4.30;;;;;;;;;;5074666;28;20307;-66
2023/01/21 13:44:01;;;;;;;4.95;4.55;;;;;;;;;;5075033;28;20231;-66
2023/01/21 13:46:35;;;;;;;4.57;4.18;;;;;;;;;;5074663;28;20196;-66
2023/01/21 13:49:15;;;;;;;4.95;4.30;;;;;;;;;;5074122;28;20211;-65
2023/01/21 13:51:51;;;;;;;4.60;4.20;;;;;;;;;;5074655;28;20294;-65
2023/01/21 13:54:30;;;;;;;4.13;3.80;;;;;;;;;;5074199;28;20287;-66
2023/01/21 13:57:08;;;;;;;4.40;3.90;;;;;;;;;;5073840;28;20694;-66
2023/01/21 13:59:37;;;;;;;4.47;4.07;;;;;;;;;;5074467;28;20402;-66
2023/01/21 14:02:08;;;;;;;4.18;3.80;;;;;;;;;;5074841;28;20228;-66
2023/01/21 14:04:40;;;;;;;4.05;3.60;;;;;;;;;;5074212;28;20204;-66
2023/01/21 14:07:10;;;;;;;3.88;3.58;;;;;;;;;;5075080;28;20482;-65
2023/01/21 14:09:42;;;;;;;3.80;3.50;;;;;;;;;;5074363;28;20319;-66
2023/01/21 14:12:14;;;;;;;3.70;3.40;;;;;;;;;;5074163;28;20283;-66
2023/01/21 14:14:50;;;;;;;3.78;3.47;;;;;;;;;;5074573;28;20652;-66
2023/01/21 14:17:41;;;;;;;3.58;3.28;;;;;;;;;;5074524;28;20237;-66
2023/01/21 14:20:17;;;;;;;3.40;3.10;;;;;;;;;;5058112;28;20208;-66
2023/01/21 14:22:53;;;;;;;3.20;3.00;;;;;;;;;;5074129;28;20710;-66
2023/01/21 14:25:28;;;;;;;3.45;3.15;;;;;;;;;;5073903;28;20204;-66
2023/01/21 14:28:00;;;;;;;3.42;3.13;;;;;;;;;;5073982;28;20712;-66
2023/01/21 14:30:32;;;;;;;3.58;3.28;;;;;;;;;;5074659;28;20204;-66
2023/01/21 14:33:02;;;;;;;3.55;3.33;;;;;;;;;;5074171;28;20200;-66
2023/01/21 14:35:34;;;;;;;2.80;2.60;;;;;;;;;;5073419;28;20781;-66
2023/01/21 14:38:07;;;;;;;3.10;2.90;;;;;;;;;;5073436;28;20251;-66
2023/01/21 14:40:35;;;;;;;3.15;2.85;;;;;;;;;;5073929;28;20210;-66
2023/01/21 14:43:02;;;;;;;3.20;3.00;;;;;;;;;;5072827;28;20224;-66
2023/01/21 14:45:48;;;;;;;3.00;2.70;;;;;;;;;;5073747;28;20207;-66
2023/01/21 14:48:28;;;;;;;3.25;2.95;;;;;;;;;;5073586;28;20381;-66
2023/01/21 14:51:09;;;;;;;3.20;2.90;;;;;;;;;;5073787;28;20294;-67
2023/01/21 14:53:43;;;;;;;2.70;2.50;;;;;;;;;;5073655;28;20531;-66
2023/01/21 14:56:17;;;;;;;2.90;2.70;;;;;;;;;;5073077;28;20204;-66
2023/01/21 14:58:48;;;;;;;3.25;3.00;;;;;;;;;;5073698;28;20205;-66
2023/01/21 15:01:33;;;;;;;3.17;2.88;;;;;;;;;;5076860;28;20204;-67
2023/01/21 15:04:03;;;;;;;2.67;2.47;;;;;;;;;;5077200;28;20279;-65
2023/01/21 15:06:37;;;;;;;2.50;2.30;;;;;;;;;;5077509;28;20281;-66